Yeoman, Indiana
Current Conditions -  °F | °C
As of 12:35 AM on Sunday 23 Nov 2014 (Local Time) from KMCX Reporting Station
Light Rain Light Rain  
Wind Chill: 45°   Ceiling: 9000
Heat Index: 49°   Visibility: 10mi
Dew Point: 46°   Wind: 9mph
Humidity: 92%   Direction: 180°S
Pressure: 29.93"   Gusts: NA
Location:  40.67°N, 86.72°W
Report Text: KMCX 230535Z AUTO 18008KT 10SM -RA SCT060 SCT070 OVC090 09/08 A2993 RMK AO2 P0002 T00930080
Loading
Personal Weather Stations






























Interactive Weather Map New forecast layout! Learn more

10-Day Weather Forecast

Advertisements
Track Severe Weather on mobile